createdAt,value
2019-05-29T00:00:39.615Z,99.90
2019-05-29T00:03:10.439Z,99.90
2019-05-29T00:05:40.115Z,99.90
2019-05-29T00:08:10.400Z,99.90
2019-05-29T00:10:39.900Z,99.90
2019-05-29T00:13:10.269Z,99.90
2019-05-29T00:15:39.873Z,99.90
2019-05-29T00:18:10.362Z,99.90
2019-05-29T00:20:39.921Z,99.90
2019-05-29T00:23:10.466Z,99.90
2019-05-29T00:25:40.028Z,99.90
2019-05-29T00:28:10.545Z,99.90
2019-05-29T00:30:40.017Z,99.90
2019-05-29T00:33:10.111Z,99.90
2019-05-29T00:35:39.703Z,99.90
2019-05-29T00:38:09.143Z,99.90
2019-05-29T00:40:38.613Z,99.90
2019-05-29T00:43:09.147Z,99.90
2019-05-29T00:45:38.713Z,99.90
2019-05-29T00:48:08.195Z,99.90
2019-05-29T00:50:37.680Z,99.90
2019-05-29T00:53:08.082Z,99.90
2019-05-29T00:55:37.725Z,99.90
2019-05-29T00:58:07.179Z,99.90
2019-05-29T01:00:36.700Z,99.90
2019-05-29T01:03:06.158Z,99.90
2019-05-29T01:05:35.598Z,99.90
2019-05-29T01:08:05.083Z,99.90
2019-05-29T01:10:34.539Z,99.90
2019-05-29T01:13:04.091Z,99.90
2019-05-29T01:15:33.563Z,99.90
2019-05-29T01:18:03.098Z,99.90
2019-05-29T01:20:32.528Z,99.90
2019-05-29T01:23:01.979Z,99.90
2019-05-29T01:25:31.419Z,99.90
2019-05-29T01:28:00.964Z,99.90
2019-05-29T01:30:30.444Z,99.90
2019-05-29T01:32:59.904Z,99.90
2019-05-29T01:35:29.373Z,99.90
2019-05-29T01:37:58.839Z,99.90
2019-05-29T01:40:29.684Z,99.90
2019-05-29T01:42:59.344Z,99.90
2019-05-29T01:45:28.796Z,99.90
2019-05-29T01:47:58.237Z,99.90
2019-05-29T01:50:27.968Z,99.90
2019-05-29T01:52:57.442Z,99.90
2019-05-29T01:55:27.981Z,99.90
2019-05-29T01:57:57.538Z,99.90
2019-05-29T02:00:28.468Z,99.90
2019-05-29T02:02:58.215Z,99.90
2019-05-29T02:05:28.304Z,99.90
2019-05-29T02:07:57.843Z,99.90
2019-05-29T02:10:27.291Z,99.90
2019-05-29T02:12:56.928Z,99.90
2019-05-29T02:15:33.510Z,99.90
2019-05-29T02:17:57.605Z,99.90
2019-05-29T02:20:27.258Z,99.90
2019-05-29T02:22:56.724Z,99.90
2019-05-29T02:25:26.421Z,99.90
2019-05-29T02:27:55.859Z,99.90
2019-05-29T02:30:28.574Z,99.90
2019-05-29T02:32:56.848Z,99.90
2019-05-29T02:35:28.738Z,99.90
2019-05-29T02:37:57.512Z,99.90
2019-05-29T02:40:29.457Z,99.90
2019-05-29T02:42:58.165Z,99.90
2019-05-29T02:45:50.857Z,99.90
2019-05-29T02:47:58.830Z,99.90
2019-05-29T02:50:29.331Z,99.90
2019-05-29T02:52:59.512Z,99.90
2019-05-29T02:55:30.432Z,99.90
2019-05-29T02:58:00.317Z,99.90
2019-05-29T03:00:54.307Z,99.90
2019-05-29T03:03:26.527Z,99.90
2019-05-29T03:05:56.910Z,99.90
2019-05-29T03:08:29.638Z,99.90
2019-05-29T03:10:58.572Z,99.90
2019-05-29T03:13:29.829Z,99.90
2019-05-29T03:16:10.550Z,99.90
2019-05-29T03:18:32.397Z,99.90
2019-05-29T03:21:01.830Z,99.90
2019-05-29T03:23:33.343Z,99.90
2019-05-29T03:26:02.443Z,99.90
2019-05-29T03:28:33.016Z,99.90
2019-05-29T03:31:03.146Z,99.90
2019-05-29T03:33:43.110Z,99.90
2019-05-29T03:36:03.993Z,99.90
2019-05-29T03:38:34.885Z,99.90
2019-05-29T03:41:04.742Z,99.90
2019-05-29T03:43:36.031Z,99.90
2019-05-29T03:46:05.475Z,99.90
2019-05-29T03:48:34.964Z,99.90
2019-05-29T03:51:04.403Z,99.90
2019-05-29T03:53:36.180Z,99.90
2019-05-29T03:56:05.079Z,99.90
2019-05-29T03:58:35.140Z,99.90
2019-05-29T04:01:05.441Z,99.90
2019-05-29T04:03:36.069Z,99.90
2019-05-29T04:06:06.743Z,99.90
2019-05-29T04:08:38.228Z,99.90
2019-05-29T04:11:08.481Z,99.90
2019-05-29T04:13:39.145Z,99.90
2019-05-29T04:16:11.071Z,99.90
2019-05-29T04:18:42.117Z,99.90
2019-05-29T04:21:13.080Z,99.90
2019-05-29T04:23:47.175Z,99.90
2019-05-29T04:26:19.911Z,99.90
2019-05-29T04:28:50.498Z,99.90
2019-05-29T04:31:19.959Z,99.90
2019-05-29T04:33:49.381Z,99.90
2019-05-29T04:36:18.831Z,99.90
2019-05-29T04:38:48.316Z,99.90
2019-05-29T04:41:17.749Z,99.90
2019-05-29T04:43:47.187Z,99.90
2019-05-29T04:46:16.741Z,99.90
2019-05-29T04:48:46.216Z,99.90
2019-05-29T04:51:15.668Z,99.90
2019-05-29T04:53:45.138Z,99.90
2019-05-29T04:56:14.630Z,99.90
2019-05-29T04:58:44.077Z,99.90
2019-05-29T05:01:13.550Z,99.90
2019-05-29T05:03:42.993Z,99.90
2019-05-29T05:06:12.437Z,99.90
2019-05-29T05:08:41.917Z,99.90
2019-05-29T05:11:12.194Z,99.90
2019-05-29T05:13:41.677Z,99.90
2019-05-29T05:16:11.231Z,99.90
2019-05-29T05:18:40.658Z,99.90
2019-05-29T05:21:10.131Z,99.90
2019-05-29T05:23:40.551Z,99.90
2019-05-29T05:26:10.409Z,99.90
2019-05-29T05:28:44.026Z,99.90
2019-05-29T05:31:11.067Z,99.90
2019-05-29T05:33:40.968Z,99.90
2019-05-29T05:36:10.630Z,99.90
2019-05-29T05:38:41.086Z,99.90
2019-05-29T05:41:10.795Z,99.90
2019-05-29T05:43:41.433Z,99.90
2019-05-29T05:46:11.178Z,99.90
2019-05-29T05:48:41.544Z,99.90
2019-05-29T05:51:11.191Z,99.90
2019-05-29T05:53:41.703Z,99.90
2019-05-29T05:56:11.510Z,99.90
2019-05-29T05:58:42.207Z,99.90
2019-05-29T06:01:12.289Z,99.90
2019-05-29T06:03:42.407Z,99.90
2019-05-29T06:06:12.177Z,99.90
2019-05-29T06:08:42.472Z,99.90
2019-05-29T06:11:12.375Z,99.90
2019-05-29T06:13:42.782Z,99.90
2019-05-29T06:16:12.500Z,99.90
2019-05-29T06:18:43.088Z,99.90
2019-05-29T06:21:13.030Z,99.90
2019-05-29T06:23:43.434Z,99.90
2019-05-29T06:26:13.899Z,99.90
2019-05-29T06:28:43.716Z,99.90
2019-05-29T06:31:13.315Z,99.90
2019-05-29T06:33:43.927Z,99.90
2019-05-29T06:36:13.645Z,99.90
2019-05-29T06:38:44.580Z,99.90
2019-05-29T06:41:14.603Z,99.90
2019-05-29T06:43:44.483Z,99.90
2019-05-29T06:46:14.226Z,99.90
2019-05-29T06:48:56.456Z,99.90
2019-05-29T06:51:14.893Z,99.90
2019-05-29T06:53:44.524Z,99.90
2019-05-29T06:56:14.334Z,99.90
2019-05-29T06:58:44.433Z,99.90
2019-05-29T07:01:14.005Z,99.90
2019-05-29T07:03:43.939Z,99.90
2019-05-29T07:06:13.730Z,99.90
2019-05-29T07:08:47.930Z,99.90
2019-05-29T07:11:14.370Z,99.90
2019-05-29T07:13:47.556Z,99.90
2019-05-29T07:16:15.120Z,99.90
2019-05-29T07:19:20.570Z,99.90
2019-05-29T07:21:15.771Z,99.90
2019-05-29T07:23:47.925Z,99.90
2019-05-29T07:26:16.402Z,99.90
2019-05-29T07:29:05.630Z,99.90
2019-05-29T07:31:17.176Z,99.90
2019-05-29T07:33:47.394Z,99.90
2019-05-29T07:36:16.981Z,99.90
2019-05-29T07:39:02.319Z,99.90
2019-05-29T07:41:17.642Z,99.90
2019-05-29T07:43:48.121Z,99.90
2019-05-29T07:46:17.853Z,99.90
2019-05-29T07:48:48.515Z,99.90
2019-05-29T07:51:18.504Z,99.90
2019-05-29T07:53:48.824Z,99.90
2019-05-29T07:56:22.724Z,99.90
2019-05-29T07:59:01.670Z,99.90
2019-05-29T08:01:20.869Z,99.90
2019-05-29T08:03:50.385Z,99.90
2019-05-29T08:06:19.823Z,99.90
2019-05-29T08:08:49.612Z,99.90
2019-05-29T08:11:19.108Z,99.90
2019-05-29T08:13:49.870Z,99.90
2019-05-29T08:16:19.604Z,99.90
2019-05-29T08:18:52.781Z,99.90
2019-05-29T08:21:20.355Z,99.90
2019-05-29T08:23:50.829Z,99.90
2019-05-29T08:26:20.465Z,99.90
2019-05-29T08:28:51.103Z,99.90
2019-05-29T08:31:21.223Z,99.90
2019-05-29T08:33:51.268Z,99.90
2019-05-29T08:36:21.062Z,99.90
2019-05-29T08:38:51.792Z,99.90
2019-05-29T08:41:21.473Z,99.90
2019-05-29T08:43:51.043Z,99.90
2019-05-29T08:46:20.581Z,99.90
2019-05-29T08:48:50.197Z,99.90
2019-05-29T08:51:19.739Z,99.40
2019-05-29T08:53:51.847Z,99.90
2019-05-29T08:56:20.416Z,99.90
2019-05-29T08:58:50.681Z,99.00
2019-05-29T09:01:20.404Z,99.90
2019-05-29T09:03:51.243Z,99.90
2019-05-29T09:06:21.351Z,99.90
2019-05-29T09:08:54.021Z,99.90
2019-05-29T09:11:22.184Z,99.90
2019-05-29T09:13:51.718Z,98.80
2019-05-29T09:16:21.875Z,99.90
2019-05-29T09:18:51.546Z,99.90
2019-05-29T09:21:20.981Z,99.10
2019-05-29T09:23:50.461Z,99.90
2019-05-29T09:26:23.910Z,98.90
2019-05-29T09:28:51.231Z,98.10
2019-05-29T09:31:21.917Z,99.90
2019-05-29T09:33:51.738Z,97.40
2019-05-29T09:36:22.599Z,98.30
2019-05-29T09:38:52.517Z,98.60
2019-05-29T09:41:23.541Z,99.90
2019-05-29T09:43:58.635Z,99.10
2019-05-29T09:46:25.771Z,99.00
2019-05-29T09:48:55.488Z,99.20
2019-05-29T09:51:24.870Z,99.40
2019-05-29T09:53:55.859Z,96.30
2019-05-29T09:56:25.576Z,98.50
2019-05-29T09:58:56.370Z,95.50
2019-05-29T10:01:26.257Z,98.30
2019-05-29T10:03:57.536Z,98.70
2019-05-29T10:06:26.837Z,95.00
2019-05-29T10:08:57.832Z,95.80
2019-05-29T10:11:27.541Z,96.20
2019-05-29T10:13:58.641Z,95.80
2019-05-29T10:16:28.427Z,95.30
2019-05-29T10:18:59.801Z,94.90
2019-05-29T10:24:02.067Z,96.90
2019-05-29T10:26:31.352Z,95.90
2019-05-29T10:27:51.682Z,99.10
2019-05-29T10:29:08.379Z,95.60
2019-05-29T10:31:32.023Z,94.90
2019-05-29T10:34:02.035Z,98.50
2019-05-29T10:36:31.532Z,95.30
2019-05-29T10:39:01.181Z,94.90
2019-05-29T10:41:30.642Z,96.10
2019-05-29T10:44:00.101Z,96.30
2019-05-29T10:46:29.559Z,94.20
2019-05-29T10:48:59.019Z,94.10
2019-05-29T10:51:28.545Z,96.50
2019-05-29T10:53:59.200Z,94.20
2019-05-29T10:56:28.857Z,95.60
2019-05-29T10:59:00.016Z,98.50
2019-05-29T11:01:29.674Z,94.90
2019-05-29T11:03:59.167Z,95.00
2019-05-29T11:06:28.634Z,93.30
2019-05-29T11:08:58.120Z,95.40
2019-05-29T11:11:27.619Z,97.20
2019-05-29T11:13:57.219Z,93.30
2019-05-29T11:16:26.762Z,95.50
2019-05-29T11:18:57.330Z,96.20
2019-05-29T11:21:27.120Z,95.70
2019-05-29T11:23:58.052Z,93.00
2019-05-29T11:26:27.676Z,96.40
2019-05-29T11:28:58.596Z,93.60
2019-05-29T11:31:28.360Z,95.80
2019-05-29T11:33:59.090Z,92.80
2019-05-29T11:36:28.775Z,96.00
2019-05-29T11:39:02.977Z,93.70
2019-05-29T11:41:29.619Z,94.60
2019-05-29T11:43:59.074Z,92.60
2019-05-29T11:46:28.551Z,93.30
2019-05-29T11:48:59.251Z,94.00
2019-05-29T11:51:28.861Z,94.60
2019-05-29T11:53:59.464Z,95.80
2019-05-29T11:56:29.203Z,93.30
2019-05-29T11:58:59.036Z,93.30
2019-05-29T12:01:28.735Z,91.60
2019-05-29T12:04:18.694Z,93.50
2019-05-29T12:06:29.352Z,93.90
2019-05-29T12:08:59.833Z,93.20
2019-05-29T12:11:29.480Z,93.80
2019-05-29T12:14:00.561Z,94.40
2019-05-29T12:16:30.086Z,93.50
2019-05-29T12:18:59.905Z,93.80
2019-05-29T12:21:29.373Z,93.20
2019-05-29T12:23:58.824Z,94.30
2019-05-29T12:26:28.257Z,92.50
2019-05-29T12:29:04.878Z,93.30
2019-05-29T12:31:28.960Z,92.00
2019-05-29T12:34:04.988Z,91.50
2019-05-29T12:36:42.474Z,96.10
2019-05-29T12:39:11.937Z,95.60
2019-05-29T12:41:41.388Z,94.20
2019-05-29T12:44:10.842Z,90.40
2019-05-29T12:46:40.282Z,93.80
2019-05-29T12:49:09.891Z,92.20
2019-05-29T12:51:39.365Z,90.60
2019-05-29T12:54:08.840Z,94.00
2019-05-29T12:56:38.278Z,93.60
2019-05-29T12:59:07.921Z,92.60
2019-05-29T13:01:37.395Z,89.40
2019-05-29T13:04:07.048Z,92.70
2019-05-29T13:06:36.487Z,92.60
2019-05-29T13:09:08.729Z,90.40
2019-05-29T13:11:38.175Z,87.10
2019-05-29T13:14:07.637Z,92.90
2019-05-29T13:16:37.075Z,90.60
2019-05-29T13:19:06.558Z,90.10
2019-05-29T13:21:36.002Z,90.30
2019-05-29T13:24:10.887Z,91.50
2019-05-29T13:26:36.919Z,87.50
2019-05-29T13:29:06.474Z,85.60
2019-05-29T13:31:35.924Z,91.70
2019-05-29T13:34:07.153Z,88.20
2019-05-29T13:36:36.718Z,87.10
2019-05-29T13:39:29.864Z,90.00
2019-05-29T13:42:03.161Z,89.60
2019-05-29T13:44:29.387Z,90.10
2019-05-29T13:46:59.878Z,89.80
2019-05-29T13:49:29.362Z,88.70
2019-05-29T13:51:59.157Z,88.60
2019-05-29T13:54:28.721Z,89.60
2019-05-29T13:56:59.619Z,90.00
2019-05-29T13:59:29.353Z,89.90
2019-05-29T14:02:00.250Z,87.90
2019-05-29T14:04:29.866Z,87.50
2019-05-29T14:07:00.340Z,87.50
2019-05-29T14:09:29.960Z,88.10
2019-05-29T14:12:00.856Z,90.50
2019-05-29T14:14:30.287Z,89.00
2019-05-29T14:17:00.367Z,87.20
2019-05-29T14:19:30.130Z,87.80
2019-05-29T14:22:01.055Z,90.80
2019-05-29T14:24:30.784Z,88.30
2019-05-29T14:27:01.605Z,86.60
2019-05-29T14:29:31.138Z,84.40
2019-05-29T14:32:01.022Z,86.60
2019-05-29T14:34:30.572Z,85.10
2019-05-29T14:37:02.727Z,85.20
2019-05-29T14:39:31.197Z,90.20
2019-05-29T14:42:01.702Z,87.00
2019-05-29T14:44:31.230Z,89.80
2019-05-29T14:47:01.785Z,90.00
2019-05-29T14:49:31.438Z,85.60
2019-05-29T14:52:00.893Z,87.10
2019-05-29T14:54:41.080Z,87.80
2019-05-29T14:57:09.320Z,85.70
2019-05-29T14:59:32.814Z,84.00
2019-05-29T15:02:06.213Z,86.20
2019-05-29T15:04:33.435Z,82.60
2019-05-29T15:07:03.723Z,83.40
2019-05-29T15:09:33.340Z,86.60
2019-05-29T15:12:03.857Z,84.00
2019-05-29T15:14:33.479Z,86.90
2019-05-29T15:17:02.980Z,86.00
2019-05-29T15:19:32.429Z,87.90
2019-05-29T15:22:02.017Z,82.40
2019-05-29T15:24:31.457Z,81.10
2019-05-29T15:27:00.912Z,82.20
2019-05-29T15:29:30.402Z,81.10
2019-05-29T15:31:59.839Z,84.30
2019-05-29T15:34:29.299Z,81.20
2019-05-29T15:36:58.758Z,85.40
2019-05-29T15:39:28.227Z,83.70
2019-05-29T15:41:57.721Z,83.40
2019-05-29T15:44:27.209Z,83.10
2019-05-29T15:46:56.686Z,81.90
2019-05-29T15:49:26.088Z,82.20
2019-05-29T15:51:55.555Z,80.10
2019-05-29T15:54:25.019Z,80.70
2019-05-29T15:56:54.446Z,81.40
2019-05-29T15:59:23.896Z,87.80
2019-05-29T16:01:53.334Z,88.60
2019-05-29T16:04:23.814Z,82.10
2019-05-29T16:06:55.065Z,85.70
2019-05-29T16:09:24.457Z,84.40
2019-05-29T16:11:53.916Z,86.00
2019-05-29T16:14:23.389Z,86.00
2019-05-29T16:16:52.842Z,81.20
2019-05-29T16:19:22.623Z,81.50
2019-05-29T16:21:52.098Z,87.80
2019-05-29T16:24:21.551Z,84.50
2019-05-29T16:26:51.009Z,82.40
2019-05-29T16:29:20.529Z,87.50
2019-05-29T16:31:50.008Z,84.40
2019-05-29T16:34:20.441Z,90.60
2019-05-29T16:36:50.652Z,86.20
2019-05-29T16:39:21.431Z,88.90
2019-05-29T16:41:51.260Z,90.70
2019-05-29T16:44:27.322Z,89.70
2019-05-29T16:46:51.927Z,82.80
2019-05-29T16:49:21.766Z,88.20
2019-05-29T16:51:52.583Z,87.60
2019-05-29T16:54:23.069Z,89.90
2019-05-29T16:56:52.805Z,88.80
2019-05-29T16:59:24.940Z,82.20
2019-05-29T17:01:53.459Z,83.10
2019-05-29T17:04:23.882Z,85.50
2019-05-29T17:06:53.560Z,89.90
2019-05-29T17:09:24.426Z,85.50
2019-05-29T17:11:54.091Z,85.30
2019-05-29T17:14:24.758Z,86.70
2019-05-29T17:16:54.693Z,88.10
2019-05-29T17:19:25.320Z,80.20
2019-05-29T17:21:55.096Z,84.40
2019-05-29T17:24:25.080Z,87.80
2019-05-29T17:26:54.836Z,86.90
2019-05-29T17:29:25.106Z,79.80
2019-05-29T17:31:54.860Z,86.30
2019-05-29T17:34:25.222Z,90.10
2019-05-29T17:36:54.964Z,90.50
2019-05-29T17:39:25.164Z,90.10
2019-05-29T17:41:54.725Z,90.60
2019-05-29T17:44:24.490Z,91.90
2019-05-29T17:46:55.156Z,90.90
2019-05-29T17:49:32.795Z,91.30
2019-05-29T17:51:55.870Z,90.60
2019-05-29T17:54:26.100Z,91.00
2019-05-29T17:56:55.890Z,90.30
2019-05-29T17:59:26.332Z,91.30
2019-05-29T18:01:55.892Z,91.50
2019-05-29T18:04:26.638Z,90.60
2019-05-29T18:06:56.719Z,90.60
2019-05-29T18:09:28.811Z,90.60
2019-05-29T18:11:57.471Z,91.20
2019-05-29T18:14:28.927Z,91.30
2019-05-29T18:16:58.434Z,91.60
2019-05-29T18:19:32.062Z,91.40
2019-05-29T18:22:03.808Z,91.70
2019-05-29T18:24:33.255Z,92.00
2019-05-29T18:27:02.705Z,90.00
2019-05-29T18:29:32.196Z,92.10
2019-05-29T18:32:01.642Z,92.10
2019-05-29T18:34:31.093Z,92.30
2019-05-29T18:37:02.598Z,92.50
2019-05-29T18:39:32.502Z,92.40
2019-05-29T18:42:02.065Z,91.30
2019-05-29T18:44:31.595Z,92.90
2019-05-29T18:47:01.049Z,93.40
2019-05-29T18:49:30.501Z,93.40
2019-05-29T18:52:01.210Z,93.40
2019-05-29T18:54:32.947Z,93.10
2019-05-29T18:57:14.648Z,93.30
2019-05-29T18:59:33.068Z,93.40
2019-05-29T19:02:02.501Z,93.40
2019-05-29T19:04:32.157Z,93.00
2019-05-29T19:07:01.610Z,92.00
2019-05-29T19:09:31.976Z,92.40
2019-05-29T19:12:01.742Z,93.50
2019-05-29T19:14:32.385Z,92.40
2019-05-29T19:17:02.057Z,93.90
2019-05-29T19:19:32.494Z,93.90
2019-05-29T19:22:02.043Z,93.90
2019-05-29T19:24:32.705Z,93.90
2019-05-29T19:27:02.638Z,90.10
2019-05-29T19:29:33.317Z,90.80
2019-05-29T19:32:03.048Z,90.10
2019-05-29T19:34:33.669Z,89.90
2019-05-29T19:37:04.734Z,90.30
2019-05-29T19:39:34.281Z,90.40
2019-05-29T19:42:03.699Z,90.50
2019-05-29T19:44:34.442Z,90.80
2019-05-29T19:47:04.057Z,90.90
2019-05-29T19:49:33.521Z,90.90
2019-05-29T19:52:02.973Z,91.10
2019-05-29T19:54:33.583Z,91.10
2019-05-29T19:57:03.185Z,92.00
2019-05-29T19:59:32.630Z,93.00
2019-05-29T20:02:02.089Z,91.60
2019-05-29T20:04:32.648Z,91.30
2019-05-29T20:07:02.219Z,93.50
2019-05-29T20:09:32.217Z,91.40
2019-05-29T20:12:02.597Z,91.80
2019-05-29T20:14:32.084Z,94.40
2019-05-29T20:17:01.567Z,92.00
2019-05-29T20:19:34.488Z,96.50
2019-05-29T20:22:02.223Z,94.60
2019-05-29T20:24:32.710Z,95.80
2019-05-29T20:27:02.405Z,92.20
2019-05-29T20:29:32.393Z,93.60
2019-05-29T20:32:02.039Z,92.60
2019-05-29T20:34:32.696Z,93.50
2019-05-29T20:37:02.299Z,93.60
2019-05-29T20:39:32.973Z,93.90
2019-05-29T20:42:02.833Z,94.00
2019-05-29T20:44:32.627Z,94.60
2019-05-29T20:47:02.809Z,94.50
2019-05-29T20:49:32.253Z,94.90
2019-05-29T20:52:01.711Z,96.90
2019-05-29T20:54:31.600Z,94.90
2019-05-29T20:57:02.782Z,95.20
2019-05-29T20:59:32.266Z,95.50
2019-05-29T21:02:01.771Z,95.70
2019-05-29T21:04:32.928Z,95.90
2019-05-29T21:07:02.485Z,95.70
2019-05-29T21:09:32.920Z,97.10
2019-05-29T21:12:04.216Z,96.00
2019-05-29T21:14:33.749Z,98.90
2019-05-29T21:17:03.253Z,96.20
2019-05-29T21:19:33.914Z,96.40
2019-05-29T21:22:03.541Z,96.60
2019-05-29T21:24:34.445Z,98.40
2019-05-29T21:27:04.107Z,96.60
2019-05-29T21:29:33.551Z,97.20
2019-05-29T21:32:03.114Z,97.10
2019-05-29T21:34:32.629Z,97.70
2019-05-29T21:37:02.096Z,99.90
2019-05-29T21:39:32.348Z,97.90
2019-05-29T21:42:01.829Z,98.90
2019-05-29T21:44:31.284Z,99.30
2019-05-29T21:47:00.766Z,97.90
2019-05-29T21:49:31.500Z,97.90
2019-05-29T21:52:01.159Z,99.90
2019-05-29T21:54:30.586Z,97.90
2019-05-29T21:57:00.049Z,98.30
2019-05-29T21:59:29.497Z,98.40
2019-05-29T22:01:59.022Z,99.40
2019-05-29T22:04:28.498Z,98.30
2019-05-29T22:06:58.023Z,98.40
2019-05-29T22:09:27.570Z,99.90
2019-05-29T22:11:57.022Z,98.70
2019-05-29T22:14:26.767Z,99.90
2019-05-29T22:16:57.196Z,98.90
2019-05-29T22:19:26.650Z,99.20
2019-05-29T22:21:57.093Z,99.00
2019-05-29T22:24:26.597Z,99.50
2019-05-29T22:26:57.252Z,99.40
2019-05-29T22:29:26.789Z,99.90
2019-05-29T22:31:57.496Z,99.90
2019-05-29T22:34:27.109Z,99.90
2019-05-29T22:36:57.505Z,99.70
2019-05-29T22:39:27.068Z,99.70
2019-05-29T22:41:57.589Z,99.90
2019-05-29T22:44:27.078Z,99.40
2019-05-29T22:46:57.601Z,99.60
2019-05-29T22:49:27.183Z,99.90
2019-05-29T22:51:57.758Z,99.90
2019-05-29T22:54:27.293Z,99.90
2019-05-29T22:56:57.877Z,99.90
2019-05-29T22:59:32.078Z,99.90
2019-05-29T23:01:58.667Z,99.90
2019-05-29T23:04:28.137Z,99.90
2019-05-29T23:06:58.359Z,99.90
2019-05-29T23:09:27.832Z,99.60
2019-05-29T23:11:58.317Z,99.90
2019-05-29T23:14:27.785Z,99.90
2019-05-29T23:16:58.475Z,99.90
2019-05-29T23:19:28.036Z,99.90
2019-05-29T23:21:58.994Z,99.90
2019-05-29T23:24:28.735Z,99.90
2019-05-29T23:26:58.756Z,99.90
2019-05-29T23:29:28.349Z,99.90
2019-05-29T23:31:58.910Z,99.90
2019-05-29T23:34:28.505Z,99.90
2019-05-29T23:36:59.098Z,99.90
2019-05-29T23:39:28.686Z,99.90
2019-05-29T23:41:59.316Z,99.90
2019-05-29T23:44:28.880Z,99.90
2019-05-29T23:46:59.497Z,99.90
2019-05-29T23:49:29.083Z,99.90
2019-05-29T23:51:59.645Z,99.90
2019-05-29T23:54:29.321Z,99.90
2019-05-29T23:56:59.897Z,99.90
2019-05-29T23:59:29.399Z,99.90
